Time;durP1;ratioP1;P1;durP2;ratioP2;P2;SDS_P1;SDS_P2;PMS_P1;PMS_P2;Temp;Humidity;BMP_temperature;BMP_pressure;BME280_temperature;BME280_humidity;BME280_pressure;Samples;Min_cycle;Max_cycle;Signal;HPM_P1;HPM_P2
2021/01/17 00:01:25;;;;;;;6.10;2.58;;;-4.20;99.90;;;;;;4910942;28;20501;-76
2021/01/17 00:03:48;;;;;;;7.68;2.45;;;-4.20;99.90;;;;;;4911082;28;20089;-77
2021/01/17 00:06:12;;;;;;;4.50;2.13;;;-4.10;99.90;;;;;;4909084;28;20107;-76
2021/01/17 00:08:34;;;;;;;5.85;2.70;;;-4.10;99.90;;;;;;4908375;28;20125;-76
2021/01/17 00:10:57;;;;;;;6.28;2.42;;;-4.10;99.90;;;;;;4911244;28;20100;-76
2021/01/17 00:13:20;;;;;;;6.32;2.70;;;-4.20;99.90;;;;;;4911138;28;20513;-77
2021/01/17 00:15:43;;;;;;;8.20;2.45;;;-4.20;99.90;;;;;;4909967;28;20129;-76
2021/01/17 00:18:06;;;;;;;8.18;2.90;;;-4.30;99.90;;;;;;4910020;28;20103;-76
2021/01/17 00:20:30;;;;;;;3.75;2.10;;;-4.30;99.90;;;;;;4910202;28;21138;-77
2021/01/17 00:22:54;;;;;;;5.75;2.22;;;-4.30;99.90;;;;;;4911027;28;20105;-76
2021/01/17 00:25:19;;;;;;;5.47;2.97;;;-4.30;99.90;;;;;;4908864;28;20101;-76
2021/01/17 00:27:41;;;;;;;5.97;2.55;;;-4.30;99.90;;;;;;4910540;28;20093;-77
2021/01/17 00:30:08;;;;;;;5.65;2.85;;;-4.30;99.90;;;;;;4911494;28;20676;-77
2021/01/17 00:32:30;;;;;;;6.10;2.60;;;-4.40;99.90;;;;;;4894088;28;20091;-76
2021/01/17 00:34:53;;;;;;;8.63;3.25;;;-4.50;99.90;;;;;;4891616;28;20117;-77
2021/01/17 00:37:17;;;;;;;6.63;2.70;;;-4.50;99.90;;;;;;4889888;28;20114;-76
2021/01/17 00:39:41;;;;;;;5.90;2.33;;;;;;;;;;4891610;28;20539;-76
2021/01/17 00:42:08;;;;;;;6.22;2.97;;;-4.80;99.90;;;;;;4888266;28;20163;-76
2021/01/17 00:44:31;;;;;;;5.88;2.83;;;-4.70;99.90;;;;;;4889499;28;20104;-77
2021/01/17 00:46:53;;;;;;;6.20;2.45;;;-4.60;99.90;;;;;;4891600;28;20110;-76
2021/01/17 00:49:16;;;;;;;6.65;3.05;;;-4.50;99.90;;;;;;4883045;28;20131;-76
2021/01/17 00:51:44;;;;;;;5.38;2.28;;;-4.50;99.90;;;;;;4902668;28;20147;-77
2021/01/17 00:54:07;;;;;;;5.85;2.50;;;-4.40;99.90;;;;;;4889767;28;20103;-76
2021/01/17 00:56:31;;;;;;;8.50;2.55;;;;;;;;;;4908131;28;20201;-76
2021/01/17 00:58:54;;;;;;;9.63;2.67;;;-4.20;99.90;;;;;;4914808;28;20188;-78
2021/01/17 01:01:17;;;;;;;4.85;2.53;;;-4.20;99.90;;;;;;4909507;28;20509;-77
2021/01/17 01:03:40;;;;;;;6.63;3.13;;;-4.30;99.90;;;;;;4908118;28;20112;-77
2021/01/17 01:06:03;;;;;;;8.05;2.78;;;-4.30;99.90;;;;;;4909871;28;20109;-76
2021/01/17 01:08:26;;;;;;;6.82;3.20;;;-4.40;99.90;;;;;;4910269;28;20129;-77
2021/01/17 01:10:49;;;;;;;8.88;2.97;;;-4.40;99.90;;;;;;4910859;28;20581;-76
2021/01/17 01:13:12;;;;;;;6.63;2.72;;;-4.40;99.90;;;;;;4892226;28;20103;-77
2021/01/17 01:15:35;;;;;;;7.65;3.42;;;-4.50;99.90;;;;;;4890209;28;20157;-76
2021/01/17 01:18:00;;;;;;;5.97;2.45;;;-4.50;99.90;;;;;;4891254;28;20577;-76
2021/01/17 01:20:23;;;;;;;6.85;2.78;;;-4.60;99.90;;;;;;4890947;28;20531;-76
2021/01/17 01:22:46;;;;;;;6.32;3.05;;;-4.60;99.90;;;;;;4909640;28;20133;-76
2021/01/17 01:25:10;;;;;;;5.32;2.55;;;-4.60;99.90;;;;;;4909962;28;20146;-77
2021/01/17 01:27:33;;;;;;;7.07;2.83;;;-4.60;99.90;;;;;;4890947;28;20101;-76
2021/01/17 01:29:57;;;;;;;6.90;3.10;;;-4.60;99.90;;;;;;4891141;28;20099;-76
2021/01/17 01:32:20;;;;;;;12.27;2.97;;;-4.60;99.90;;;;;;4890189;28;20951;-75
2021/01/17 01:34:43;;;;;;;5.97;2.63;;;-4.60;99.90;;;;;;4889463;28;20120;-76
2021/01/17 01:37:06;;;;;;;7.88;3.45;;;-4.50;99.90;;;;;;4894470;28;20107;-76
2021/01/17 01:39:28;;;;;;;7.35;3.25;;;-4.40;99.90;;;;;;4893168;28;20130;-76
2021/01/17 01:41:51;;;;;;;8.75;3.72;;;-4.30;99.90;;;;;;4884820;28;20121;-75
2021/01/17 01:44:14;;;;;;;8.57;3.17;;;-4.20;99.90;;;;;;4894050;28;20102;-76
2021/01/17 01:46:40;;;;;;;8.95;3.95;;;-4.10;99.90;;;;;;4892880;28;20124;-77
2021/01/17 01:49:03;;;;;;;9.40;3.70;;;-3.90;99.90;;;;;;4893096;28;20125;-76
2021/01/17 01:51:27;;;;;;;7.85;3.67;;;-3.80;99.90;;;;;;4896519;28;20092;-76
2021/01/17 01:53:51;;;;;;;7.95;3.45;;;-3.60;99.90;;;;;;4891344;28;20099;-75
2021/01/17 01:56:14;;;;;;;8.88;3.67;;;-3.50;99.90;;;;;;4885186;28;20145;-77
2021/01/17 01:58:38;;;;;;;10.50;4.50;;;-3.30;99.90;;;;;;4906297;28;20182;-76
2021/01/17 02:01:00;;;;;;;8.20;4.15;;;-3.30;99.90;;;;;;4896201;28;20093;-77
2021/01/17 02:03:24;;;;;;;10.88;4.80;;;-3.20;99.90;;;;;;4890112;28;26517;-78
2021/01/17 02:05:47;;;;;;;10.60;4.80;;;-3.10;99.90;;;;;;4894173;28;20123;-76
2021/01/17 02:08:41;;;;;;;10.35;4.35;;;-3.10;99.90;;;;;;4892416;28;20108;-76
2021/01/17 02:11:10;;;;;;;10.88;3.92;;;-3.00;99.90;;;;;;4887845;28;20146;-77
2021/01/17 02:13:39;;;;;;;12.18;4.68;;;-2.90;99.90;;;;;;4891481;28;20161;-77
2021/01/17 02:16:04;;;;;;;8.98;4.18;;;-2.80;99.90;;;;;;4894521;28;20099;-77
2021/01/17 02:18:30;;;;;;;9.75;4.55;;;-2.70;99.90;;;;;;4894168;28;20132;-77
2021/01/17 02:20:54;;;;;;;8.80;4.57;;;-2.60;99.90;;;;;;4892337;28;20159;-77
2021/01/17 02:23:21;;;;;;;11.02;5.28;;;-2.50;99.90;;;;;;4892798;28;20105;-77
2021/01/17 02:25:45;;;;;;;10.93;4.13;;;-2.40;99.90;;;;;;4893539;28;20181;-77
2021/01/17 02:28:11;;;;;;;8.82;4.00;;;-2.30;99.90;;;;;;4892112;28;20090;-77
2021/01/17 02:30:40;;;;;;;11.30;5.43;;;-2.10;99.90;;;;;;4891628;28;20623;-78
2021/01/17 02:33:07;;;;;;;11.52;4.55;;;-2.10;99.90;;;;;;4892216;28;20145;-77
2021/01/17 02:35:33;;;;;;;9.85;4.95;;;-2.00;99.90;;;;;;4890678;28;20162;-77
2021/01/17 02:38:11;;;;;;;13.20;4.82;;;-1.90;99.90;;;;;;4892904;28;20094;-78
2021/01/17 02:40:43;;;;;;;11.35;5.03;;;-1.90;99.90;;;;;;4892823;28;20098;-78
2021/01/17 02:43:07;;;;;;;12.23;5.03;;;-1.90;99.90;;;;;;4908976;28;20430;-78
2021/01/17 02:45:30;;;;;;;16.05;5.80;;;-1.90;99.90;;;;;;4910369;28;20157;-78
2021/01/17 02:47:53;;;;;;;14.75;5.95;;;-3.60;99.90;;;;;;4912206;28;20598;-78
2021/01/17 02:50:16;;;;;;;15.40;5.80;;;-1.90;99.90;;;;;;4912278;28;20093;-77
2021/01/17 02:52:44;;;;;;;11.40;5.20;;;-2.00;99.90;;;;;;4912126;28;20090;-78
2021/01/17 02:55:08;;;;;;;18.17;5.22;;;-2.00;99.90;;;;;;4887425;28;20133;-78
2021/01/17 02:57:35;;;;;;;14.90;5.85;;;-2.10;99.90;;;;;;4902969;28;20453;-78
2021/01/17 03:00:06;;;;;;;15.07;4.93;;;-2.10;99.90;;;;;;4891671;28;20097;-77
2021/01/17 03:02:32;;;;;;;11.90;5.32;;;-2.20;99.90;;;;;;4890474;28;20206;-78
2021/01/17 03:04:59;;;;;;;13.05;4.80;;;-2.20;99.90;;;;;;4890488;28;20108;-78
2021/01/17 03:07:23;;;;;;;13.95;5.53;;;-2.20;99.90;;;;;;4891300;28;20087;-78
2021/01/17 03:09:46;;;;;;;13.52;5.00;;;-2.20;99.90;;;;;;4891259;28;20114;-78
2021/01/17 03:12:11;;;;;;;12.00;5.47;;;-2.20;99.90;;;;;;4892085;28;20129;-79
2021/01/17 03:14:37;;;;;;;11.20;4.75;;;-2.20;99.90;;;;;;4893477;28;20095;-80
2021/01/17 03:17:03;;;;;;;11.77;4.90;;;-2.10;99.90;;;;;;4891592;28;20185;-78
2021/01/17 03:19:26;;;;;;;11.32;4.40;;;-2.10;99.90;;;;;;4891111;28;21309;-78
2021/01/17 03:21:48;;;;;;;7.65;4.35;;;-2.10;99.90;;;;;;4892989;28;20516;-78
2021/01/17 03:24:11;;;;;;;9.70;4.47;;;-2.10;99.90;;;;;;4891527;28;20102;-80
2021/01/17 03:26:34;;;;;;;8.38;4.50;;;-2.10;99.90;;;;;;4892891;28;20112;-78
2021/01/17 03:28:57;;;;;;;12.85;4.78;;;-2.10;99.90;;;;;;4891298;28;20549;-78
2021/01/17 03:31:20;;;;;;;10.07;4.45;;;-2.10;99.90;;;;;;4891875;28;20121;-77
2021/01/17 03:33:43;;;;;;;9.05;4.35;;;-2.00;99.90;;;;;;4887748;28;20466;-78
2021/01/17 03:36:06;;;;;;;12.65;4.90;;;-2.00;99.90;;;;;;4892579;28;20101;-78
2021/01/17 03:38:29;;;;;;;8.93;4.13;;;-1.90;99.90;;;;;;4898622;28;20182;-78
2021/01/17 03:40:52;;;;;;;10.68;4.95;;;-1.90;99.90;;;;;;4891839;28;20177;-79
2021/01/17 03:43:15;;;;;;;12.32;5.03;;;-1.90;99.90;;;;;;4892293;28;20106;-77
2021/01/17 03:45:37;;;;;;;10.95;5.35;;;-1.80;99.90;;;;;;4891221;28;20486;-78
2021/01/17 03:48:00;;;;;;;13.88;5.05;;;-1.80;99.90;;;;;;4907563;28;20100;-78
2021/01/17 03:50:24;;;;;;;11.50;4.80;;;-1.80;99.90;;;;;;4890359;28;21006;-78
2021/01/17 03:52:47;;;;;;;12.02;4.57;;;-1.90;99.90;;;;;;4888216;28;20670;-78
2021/01/17 03:55:10;;;;;;;13.30;4.50;;;-1.90;99.90;;;;;;4890684;28;20449;-77
2021/01/17 03:57:33;;;;;;;11.88;4.47;;;-1.80;99.90;;;;;;4891446;28;20101;-77
2021/01/17 03:59:56;;;;;;;10.13;4.60;;;-1.80;99.90;;;;;;4889406;28;20097;-79
2021/01/17 04:02:18;;;;;;;10.27;5.22;;;-1.80;99.90;;;;;;4891338;28;21939;-78
2021/01/17 04:04:41;;;;;;;11.63;5.68;;;-1.80;99.90;;;;;;4891423;28;20093;-78
2021/01/17 04:07:05;;;;;;;10.43;5.10;;;-1.80;99.90;;;;;;4891599;28;20089;-79
2021/01/17 04:09:29;;;;;;;11.65;5.25;;;-1.80;99.90;;;;;;4892149;28;20426;-78
2021/01/17 04:11:52;;;;;;;12.68;4.85;;;-1.80;99.90;;;;;;4891942;28;20172;-79
2021/01/17 04:14:14;;;;;;;14.32;4.90;;;-1.80;99.90;;;;;;4890213;28;20159;-78
2021/01/17 04:16:37;;;;;;;10.32;5.30;;;-1.80;99.90;;;;;;4891853;28;20120;-78
2021/01/17 04:19:00;;;;;;;10.32;4.63;;;-1.80;99.90;;;;;;4890169;28;20559;-78
2021/01/17 04:21:23;;;;;;;13.02;5.43;;;-1.80;99.90;;;;;;4890890;28;20136;-78
2021/01/17 04:23:46;;;;;;;12.48;5.20;;;-1.80;99.90;;;;;;4882817;28;20116;-78
2021/01/17 04:26:10;;;;;;;15.18;5.28;;;-1.80;99.90;;;;;;4891083;28;20096;-78
2021/01/17 04:28:32;;;;;;;10.82;4.75;;;-1.80;99.90;;;;;;4888077;28;20138;-78
2021/01/17 04:30:55;;;;;;;11.70;5.05;;;-1.80;99.90;;;;;;4890900;28;20128;-79
2021/01/17 04:33:19;;;;;;;11.38;4.97;;;-1.80;99.90;;;;;;4889621;28;20112;-78
2021/01/17 04:35:42;;;;;;;13.70;4.90;;;;;;;;;;4889297;28;20488;-79
2021/01/17 04:38:05;;;;;;;15.43;5.07;;;-1.80;99.90;;;;;;4891339;28;20099;-78
2021/01/17 04:40:30;;;;;;;10.55;4.72;;;-1.80;99.90;;;;;;4891134;28;20109;-78
2021/01/17 04:43:04;;;;;;;11.57;5.30;;;-1.80;99.90;;;;;;4891175;28;20180;-78
2021/01/17 04:45:28;;;;;;;12.60;4.97;;;-1.80;99.90;;;;;;4893772;28;20103;-77
2021/01/17 04:47:52;;;;;;;17.73;5.20;;;-1.80;99.90;;;;;;4889438;28;20095;-78
2021/01/17 04:50:18;;;;;;;10.45;4.53;;;-1.80;99.90;;;;;;4891334;28;20532;-78
2021/01/17 04:52:42;;;;;;;10.40;5.13;;;-1.90;99.90;;;;;;4884800;28;20450;-78
2021/01/17 04:55:07;;;;;;;10.88;5.40;;;-1.90;99.90;;;;;;4897528;28;20136;-78
2021/01/17 04:57:43;;;;;;;16.52;5.45;;;-2.00;99.90;;;;;;4883850;28;20203;-79
2021/01/17 05:00:09;;;;;;;9.88;4.32;;;-1.90;99.90;;;;;;4893568;28;20120;-78
2021/01/17 05:02:33;;;;;;;11.25;5.25;;;-1.90;99.90;;;;;;4895599;28;20471;-78
2021/01/17 05:05:21;;;;;;;11.35;5.13;;;-1.90;99.90;;;;;;4908264;28;20103;-77
2021/01/17 05:08:15;;;;;;;9.80;4.63;;;-1.90;99.90;;;;;;4907980;28;20093;-77
2021/01/17 05:10:39;;;;;;;10.98;4.55;;;-1.80;99.90;;;;;;4896786;28;20454;-78
2021/01/17 05:13:11;;;;;;;13.02;5.10;;;-1.70;99.90;;;;;;4894306;28;20149;-79
2021/01/17 05:15:38;;;;;;;18.33;7.05;;;-1.80;99.90;;;;;;4889819;28;20524;-78
2021/01/17 05:18:02;;;;;;;14.82;6.78;;;-1.80;99.90;;;;;;4913377;28;20088;-78
2021/01/17 05:20:25;;;;;;;16.85;7.10;;;-1.80;99.90;;;;;;4912517;28;20094;-78
2021/01/17 05:22:49;;;;;;;24.17;8.70;;;-1.80;99.90;;;;;;4913087;28;20112;-78
2021/01/17 05:25:12;;;;;;;17.25;7.13;;;;;;;;;;4914742;28;20113;-78
2021/01/17 05:27:37;;;;;;;12.70;6.50;;;-1.70;99.90;;;;;;4914434;28;20118;-80
2021/01/17 05:30:00;;;;;;;17.63;7.75;;;-1.80;99.90;;;;;;4899612;28;20183;-78
2021/01/17 05:32:23;;;;;;;15.07;6.85;;;-1.80;99.90;;;;;;4892265;28;20176;-78
2021/01/17 05:34:46;;;;;;;12.52;5.43;;;-1.70;99.90;;;;;;4893526;28;20178;-78
2021/01/17 05:37:11;;;;;;;12.80;5.95;;;-1.60;99.90;;;;;;4894804;28;20152;-78
2021/01/17 05:39:55;;;;;;;23.45;8.25;;;-1.70;99.90;;;;;;4884032;28;20097;-79
2021/01/17 05:42:20;;;;;;;17.95;7.75;;;-1.60;99.90;;;;;;4912430;28;20578;-78
2021/01/17 05:44:42;;;;;;;13.00;5.70;;;-1.70;99.90;;;;;;4913270;28;20567;-78
2021/01/17 05:47:07;;;;;;;12.10;5.05;;;-1.60;99.90;;;;;;4913703;28;20578;-78
2021/01/17 05:49:29;;;;;;;15.05;6.05;;;-1.60;99.90;;;;;;4913342;28;20148;-78
2021/01/17 05:51:52;;;;;;;14.20;5.70;;;-1.60;99.90;;;;;;4912808;28;20196;-78
2021/01/17 05:54:15;;;;;;;14.13;6.07;;;-1.60;99.90;;;;;;4912872;28;20100;-78
2021/01/17 05:56:38;;;;;;;15.55;6.00;;;-1.60;99.90;;;;;;4913718;28;20504;-78
2021/01/17 05:59:01;;;;;;;13.35;6.38;;;-1.60;99.90;;;;;;4913866;28;20093;-79
2021/01/17 06:01:25;;;;;;;13.23;6.00;;;-1.70;99.90;;;;;;4909950;28;20120;-79
2021/01/17 06:03:53;;;;;;;14.77;5.95;;;-1.70;99.90;;;;;;4905955;28;20125;-77
2021/01/17 06:06:26;;;;;;;12.18;5.97;;;-1.80;99.90;;;;;;4893961;28;20102;-78
2021/01/17 06:08:54;;;;;;;15.00;5.78;;;-1.80;99.90;;;;;;4895721;28;20089;-78
2021/01/17 06:11:20;;;;;;;14.32;6.60;;;-1.80;99.90;;;;;;4892298;28;20093;-78
2021/01/17 06:13:52;;;;;;;17.23;6.32;;;-1.80;99.90;;;;;;4892840;28;20117;-79
2021/01/17 06:16:27;;;;;;;14.23;6.05;;;-1.80;99.90;;;;;;4894102;28;20094;-77
2021/01/17 06:18:55;;;;;;;16.65;5.82;;;-1.80;99.90;;;;;;4891100;28;20094;-78
2021/01/17 06:21:18;;;;;;;13.88;6.10;;;-1.80;99.90;;;;;;4897582;28;20096;-78
2021/01/17 06:23:41;;;;;;;13.68;6.45;;;-1.80;99.90;;;;;;4891346;28;20126;-77
2021/01/17 06:26:10;;;;;;;13.20;5.80;;;-1.80;99.90;;;;;;4893396;28;20095;-78
2021/01/17 06:28:42;;;;;;;14.32;6.15;;;-1.80;99.90;;;;;;4893399;28;20612;-78
2021/01/17 06:31:07;;;;;;;13.55;6.07;;;-1.80;99.90;;;;;;4911890;28;20130;-78
2021/01/17 06:33:29;;;;;;;14.07;6.68;;;-1.80;99.90;;;;;;4911091;28;20091;-78
2021/01/17 06:35:53;;;;;;;14.05;5.93;;;-1.80;99.90;;;;;;4911305;28;20169;-78
2021/01/17 06:38:17;;;;;;;17.23;6.00;;;-1.80;99.90;;;;;;4912423;28;20175;-79
2021/01/17 06:40:42;;;;;;;11.80;5.47;;;-1.80;99.90;;;;;;4897272;28;20089;-78
2021/01/17 06:43:05;;;;;;;;;;;-1.80;99.90;;;;;;4893092;28;20603;-77
2021/01/17 06:45:39;;;;;;;16.05;5.85;;;-1.80;99.90;;;;;;4890895;28;19973;-78
2021/01/17 06:48:02;;;;;;;11.23;5.57;;;-1.80;99.90;;;;;;4911680;28;20087;-79
2021/01/17 06:50:25;;;;;;;14.93;6.03;;;-1.70;99.90;;;;;;4912626;28;20140;-78
2021/01/17 06:52:55;;;;;;;14.50;5.65;;;-1.70;99.90;;;;;;4915168;28;20098;-78
2021/01/17 06:55:20;;;;;;;13.93;6.15;;;-1.70;99.90;;;;;;4911672;28;20099;-78
2021/01/17 06:57:43;;;;;;;13.93;6.38;;;-1.70;99.90;;;;;;4916921;28;20629;-78
2021/01/17 07:00:16;;;;;;;14.95;6.55;;;-1.70;99.90;;;;;;4912449;28;20183;-78
2021/01/17 07:02:40;;;;;;;12.00;5.75;;;-1.80;99.90;;;;;;4910008;28;20122;-79
2021/01/17 07:05:37;;;;;;;15.32;6.63;;;-1.80;99.90;;;;;;4894883;28;20089;-78
2021/01/17 07:08:20;;;;;;;10.77;5.40;;;-1.80;99.90;;;;;;4891015;28;20099;-79
2021/01/17 07:10:43;;;;;;;15.30;6.50;;;-1.90;99.90;;;;;;4881366;28;20131;-78
2021/01/17 07:13:07;;;;;;;11.20;5.43;;;-2.00;99.90;;;;;;4892616;28;20566;-78
2021/01/17 07:15:32;;;;;;;11.45;5.85;;;-1.90;99.90;;;;;;4889920;28;20176;-78
2021/01/17 07:18:01;;;;;;;18.42;6.40;;;-1.90;99.90;;;;;;4891124;28;20121;-78
2021/01/17 07:20:29;;;;;;;11.60;5.68;;;-1.80;99.90;;;;;;4891165;28;21987;-79
2021/01/17 07:22:53;;;;;;;16.33;6.60;;;-1.80;99.90;;;;;;4891951;28;20123;-78
2021/01/17 07:25:22;;;;;;;16.70;6.55;;;-1.80;99.90;;;;;;4891642;28;20255;-79
2021/01/17 07:28:04;;;;;;;15.05;6.97;;;-1.80;99.90;;;;;;4889784;28;20093;-78
2021/01/17 07:30:41;;;;;;;17.27;6.20;;;-1.80;99.90;;;;;;4910431;28;20146;-77
2021/01/17 07:33:06;;;;;;;13.77;6.53;;;-1.80;99.90;;;;;;4891228;28;20477;-79
2021/01/17 07:35:28;;;;;;;18.08;7.35;;;-1.90;99.90;;;;;;4896810;28;20449;-78
2021/01/17 07:37:55;;;;;;;18.48;6.68;;;-1.90;99.90;;;;;;4890362;28;20255;-78
2021/01/17 07:40:49;;;;;;;14.48;6.50;;;-1.80;99.90;;;;;;4891056;28;20089;-79
2021/01/17 07:43:09;;;;;;;17.20;7.07;;;-1.80;99.90;;;;;;4892653;28;20098;-78
2021/01/17 07:45:38;;;;;;;18.00;6.68;;;-1.80;99.90;;;;;;4890337;28;20179;-78
2021/01/17 07:48:07;;;;;;;16.55;6.93;;;-1.70;99.90;;;;;;4890108;28;20086;-78
2021/01/17 07:50:37;;;;;;;19.13;7.40;;;-1.70;99.90;;;;;;4889569;28;20455;-78
2021/01/17 07:53:00;;;;;;;16.85;6.63;;;-1.60;99.90;;;;;;4891907;28;20109;-78
2021/01/17 07:55:25;;;;;;;17.45;7.07;;;-1.70;99.90;;;;;;4891261;28;20110;-77
2021/01/17 07:57:51;;;;;;;15.57;6.32;;;-1.70;99.90;;;;;;4889129;28;20483;-78
2021/01/17 08:00:15;;;;;;;15.90;6.55;;;-1.60;99.90;;;;;;4890061;28;20556;-78
2021/01/17 08:02:40;;;;;;;15.05;7.25;;;-1.60;99.90;;;;;;4909930;28;20113;-78
2021/01/17 08:05:04;;;;;;;18.48;7.45;;;-1.50;99.90;;;;;;4909843;28;20521;-77
2021/01/17 08:07:32;;;;;;;15.85;7.00;;;-1.50;99.90;;;;;;4908926;28;20128;-78
2021/01/17 08:09:55;;;;;;;27.77;7.32;;;-1.40;99.90;;;;;;4910637;28;20113;-78
2021/01/17 08:12:46;;;;;;;15.20;7.22;;;-1.40;99.90;;;;;;4896676;28;20101;-78
2021/01/17 08:15:29;;;;;;;14.88;6.80;;;-1.40;99.90;;;;;;4855679;28;20105;-77
2021/01/17 08:17:52;;;;;;;12.50;6.45;;;-1.40;99.90;;;;;;4889198;28;20138;-78
2021/01/17 08:20:35;;;;;;;16.05;6.43;;;-1.40;99.90;;;;;;4888621;28;22712;-77
2021/01/17 08:23:11;;;;;;;16.00;6.88;;;-1.30;99.90;;;;;;4906082;28;20159;-77
2021/01/17 08:25:55;;;;;;;;;;;-1.30;99.90;;;;;;4889177;28;20166;-79
2021/01/17 08:28:36;;;;;;;12.95;6.00;;;-1.40;99.90;;;;;;4908082;28;20061;-79
2021/01/17 08:30:59;;;;;;;18.08;6.63;;;-1.40;99.90;;;;;;4909769;28;20094;-78
2021/01/17 08:33:27;;;;;;;14.90;7.38;;;-1.30;99.90;;;;;;4910389;28;20087;-79
2021/01/17 08:35:50;;;;;;;13.38;6.32;;;-1.30;99.90;;;;;;4900444;28;20098;-79
2021/01/17 08:38:22;;;;;;;17.77;7.18;;;-1.20;99.90;;;;;;4910360;28;20125;-79
2021/01/17 08:40:53;;;;;;;13.75;6.75;;;-1.10;99.90;;;;;;4908431;28;20126;-77
2021/01/17 08:43:17;;;;;;;13.73;6.95;;;-1.00;99.90;;;;;;4908563;28;20160;-78
2021/01/17 08:45:42;;;;;;;13.45;6.40;;;-1.00;99.90;;;;;;4908870;28;20272;-79
2021/01/17 08:48:26;;;;;;;19.02;7.32;;;-1.00;99.90;;;;;;4907834;28;20114;-79
2021/01/17 08:50:50;;;;;;;14.68;6.18;;;-0.90;99.90;;;;;;4888287;28;20119;-79
2021/01/17 08:53:14;;;;;;;14.23;6.63;;;-1.00;99.90;;;;;;4890562;28;20621;-79
2021/01/17 08:55:39;;;;;;;15.15;7.00;;;-1.00;99.90;;;;;;4886360;28;20616;-79
2021/01/17 08:58:02;;;;;;;15.73;6.80;;;-0.90;99.90;;;;;;4888706;28;20156;-80
2021/01/17 09:01:22;;;;;;;16.67;7.95;;;-0.90;99.90;;;;;;4886333;28;20637;-80
2021/01/17 09:04:19;;;;;;;15.95;7.00;;;-0.70;99.90;;;;;;4825840;28;20111;-79
2021/01/17 09:06:55;;;;;;;;;;;-0.70;99.90;;;;;;4845704;28;20102;-80
2021/01/17 09:09:52;;;;;;;14.65;6.50;;;-0.60;99.90;;;;;;4851152;28;19969;-79
2021/01/17 09:29:54;;;;;;;13.93;6.10;;;-0.40;99.90;;;;;;4901758;28;20108;-79
2021/01/17 10:40:33;;;;;;;29.42;9.95;;;0.00;99.90;;;;;;4955281;27;20098;-81
2021/01/17 10:43:01;;;;;;;34.28;10.20;;;-0.10;99.90;;;;;;4963722;27;20083;-81
2021/01/17 10:45:26;;;;;;;26.13;9.98;;;-0.10;99.90;;;;;;4965475;27;20105;-81
2021/01/17 10:47:58;;;;;;;30.50;9.90;;;0.00;99.90;;;;;;4964192;27;20093;-80
2021/01/17 10:50:22;;;;;;;39.50;9.10;;;0.10;99.90;;;;;;4963319;27;20102;-81
2021/01/17 10:52:56;;;;;;;29.20;9.13;;;0.10;99.90;;;;;;4965344;27;20133;-82
2021/01/17 10:55:19;;;;;;;33.90;10.00;;;0.10;99.90;;;;;;4956818;27;20089;-81
2021/01/17 10:57:43;;;;;;;40.90;11.10;;;0.20;99.90;;;;;;4963479;27;20087;-81
2021/01/17 11:00:08;;;;;;;39.17;10.45;;;0.10;99.90;;;;;;4965541;27;20091;-81
2021/01/17 11:02:31;;;;;;;30.38;10.20;;;0.00;99.90;;;;;;4965062;27;20083;-79
2021/01/17 11:04:54;;;;;;;28.85;9.45;;;0.10;99.90;;;;;;4964921;27;20101;-81
2021/01/17 11:07:28;;;;;;;27.08;8.85;;;0.10;99.90;;;;;;4962247;27;20094;-81
2021/01/17 11:09:52;;;;;;;29.55;10.27;;;0.00;99.90;;;;;;4960948;27;20099;-81
2021/01/17 11:12:15;;;;;;;46.95;10.82;;;0.00;99.90;;;;;;4951458;27;20130;-81
2021/01/17 11:14:38;;;;;;;39.55;10.32;;;;;;;;;;4951467;27;20554;-81
2021/01/17 11:17:02;;;;;;;46.58;12.60;;;0.10;99.90;;;;;;4952381;27;20131;-82
2021/01/17 11:19:36;;;;;;;43.80;10.80;;;0.10;99.90;;;;;;4950152;27;20101;-81
2021/01/17 11:21:59;;;;;;;50.28;12.00;;;0.10;99.90;;;;;;4951803;27;20106;-81
2021/01/17 11:24:32;;;;;;;57.95;12.90;;;0.10;99.90;;;;;;4950420;27;20094;-81
2021/01/17 11:27:11;;;;;;;39.28;11.23;;;0.20;99.90;;;;;;4950117;27;20530;-81
2021/01/17 11:29:33;;;;;;;40.95;10.52;;;0.20;99.90;;;;;;4951330;27;20096;-82
2021/01/17 11:31:58;;;;;;;42.47;10.50;;;0.20;99.90;;;;;;4949684;27;20548;-79
2021/01/17 11:34:21;;;;;;;50.70;12.17;;;0.30;99.90;;;;;;4950601;27;20094;-81
2021/01/17 11:36:44;;;;;;;57.90;12.00;;;0.30;99.90;;;;;;4934282;27;20097;-82
2021/01/17 11:39:07;;;;;;;44.60;12.07;;;0.30;99.90;;;;;;4959481;27;20191;-82
2021/01/17 11:41:34;;;;;;;42.28;12.55;;;0.30;99.90;;;;;;4951431;27;20098;-82
2021/01/17 11:44:09;;;;;;;46.75;12.05;;;0.30;99.90;;;;;;4949580;27;20098;-82
2021/01/17 11:46:34;;;;;;;43.92;12.38;;;0.20;99.90;;;;;;4949509;27;20116;-81
2021/01/17 11:48:57;;;;;;;36.40;11.07;;;0.20;99.90;;;;;;4951497;27;20632;-82
2021/01/17 11:51:24;;;;;;;31.92;10.75;;;0.30;99.90;;;;;;4921449;27;20090;-83
2021/01/17 11:53:47;;;;;;;37.08;11.65;;;0.30;99.90;;;;;;4969330;27;20132;-82
2021/01/17 11:56:12;;;;;;;36.55;10.15;;;0.40;99.90;;;;;;4949716;27;20108;-82
2021/01/17 11:58:42;;;;;;;40.10;11.35;;;0.40;99.90;;;;;;4941567;27;20092;-82
2021/01/17 12:01:06;;;;;;;35.10;11.10;;;0.30;99.90;;;;;;4948034;27;20539;-82
2021/01/17 12:03:31;;;;;;;38.72;11.98;;;0.30;99.90;;;;;;4951225;27;20124;-83
2021/01/17 12:05:59;;;;;;;;;;;0.30;99.90;;;;;;4950066;27;20580;-82
2021/01/17 12:08:22;;;;;;;38.38;12.00;;;0.20;99.90;;;;;;4949851;27;19970;-83
2021/01/17 12:10:54;;;;;;;31.85;10.98;;;0.30;99.90;;;;;;4940632;27;22752;-83
2021/01/17 12:13:17;;;;;;;35.30;11.55;;;0.20;99.90;;;;;;4948774;27;20097;-81
2021/01/17 12:15:40;;;;;;;35.33;11.40;;;0.20;99.90;;;;;;4949701;27;20090;-82
2021/01/17 12:18:04;;;;;;;47.30;12.05;;;0.20;99.90;;;;;;4950199;27;20100;-81
2021/01/17 12:20:27;;;;;;;30.98;11.23;;;0.20;99.90;;;;;;4949530;27;20091;-82
2021/01/17 12:22:51;;;;;;;36.88;11.32;;;0.30;99.90;;;;;;4950294;27;20085;-82
2021/01/17 12:25:14;;;;;;;37.75;12.15;;;0.20;99.90;;;;;;4950486;27;20188;-82
2021/01/17 12:27:37;;;;;;;40.97;11.73;;;0.20;99.90;;;;;;4940760;27;20547;-82
2021/01/17 12:30:00;;;;;;;44.92;12.50;;;0.30;99.90;;;;;;4948588;27;20106;-83
2021/01/17 12:32:23;;;;;;;38.92;12.32;;;0.30;99.90;;;;;;4949050;27;20092;-82
2021/01/17 12:34:47;;;;;;;36.38;12.02;;;0.30;99.90;;;;;;4950062;27;20464;-83
2021/01/17 12:37:12;;;;;;;38.63;11.43;;;0.20;99.90;;;;;;4941240;27;20113;-83
2021/01/17 12:39:35;;;;;;;33.65;11.63;;;0.20;99.90;;;;;;4949333;27;20110;-84
2021/01/17 12:41:59;;;;;;;43.63;11.20;;;0.20;99.90;;;;;;4949145;27;20092;-82
2021/01/17 12:44:21;;;;;;;32.30;10.32;;;0.20;99.90;;;;;;4949525;27;20096;-83
2021/01/17 12:46:46;;;;;;;28.42;10.38;;;0.20;99.90;;;;;;4949382;27;20092;-82
2021/01/17 12:49:09;;;;;;;38.20;10.63;;;0.10;99.90;;;;;;4949450;27;20203;-81
2021/01/17 12:51:33;;;;;;;31.17;9.70;;;0.20;99.90;;;;;;4933826;27;20141;-82
2021/01/17 12:53:56;;;;;;;32.33;10.27;;;0.10;99.90;;;;;;4956638;27;20142;-82
2021/01/17 12:56:22;;;;;;;41.47;11.10;;;;;;;;;;4949272;27;20090;-84
2021/01/17 12:58:45;;;;;;;33.78;10.15;;;0.10;99.90;;;;;;4927282;27;20091;-83
2021/01/17 13:01:08;;;;;;;28.80;10.10;;;0.20;99.90;;;;;;4956142;27;20592;-83
2021/01/17 13:03:33;;;;;;;38.35;11.73;;;0.20;99.90;;;;;;4949828;27;20664;-82
2021/01/17 13:06:06;;;;;;;42.20;16.63;;;0.20;99.90;;;;;;4961862;27;20101;-82
2021/01/17 13:08:33;;;;;;;30.33;9.60;;;0.10;99.90;;;;;;4958460;27;20106;-81
2021/01/17 13:10:57;;;;;;;31.02;11.20;;;0.10;99.90;;;;;;4953350;27;21686;-83
2021/01/17 13:13:29;;;;;;;26.35;10.38;;;0.00;99.90;;;;;;4952617;27;20442;-82
2021/01/17 13:15:55;;;;;;;29.15;10.02;;;0.00;99.90;;;;;;4951882;27;20090;-82
2021/01/17 13:18:29;;;;;;;27.38;10.23;;;0.00;99.90;;;;;;4950705;27;20092;-81
2021/01/17 13:20:52;;;;;;;28.45;11.43;;;0.10;99.90;;;;;;4947658;27;20083;-82
2021/01/17 13:23:16;;;;;;;31.33;11.82;;;0.10;99.90;;;;;;4951426;27;20191;-82
2021/01/17 13:25:43;;;;;;;34.90;12.10;;;0.10;99.90;;;;;;4952041;27;20098;-81
2021/01/17 13:28:08;;;;;;;36.03;12.10;;;0.10;99.90;;;;;;4948977;27;20093;-81
2021/01/17 13:30:40;;;;;;;33.08;11.60;;;0.10;99.90;;;;;;4931092;27;20082;-81
2021/01/17 13:33:13;;;;;;;32.08;11.68;;;0.10;99.90;;;;;;4960969;27;20102;-82
2021/01/17 13:35:37;;;;;;;30.17;11.73;;;0.10;99.90;;;;;;4951364;27;20167;-82
2021/01/17 13:38:00;;;;;;;31.17;11.88;;;0.00;99.90;;;;;;4947360;27;20173;-82
2021/01/17 13:40:24;;;;;;;35.50;12.20;;;0.00;99.90;;;;;;4955189;27;20902;-82
2021/01/17 13:42:48;;;;;;;32.88;11.23;;;;;;;;;;4966213;27;20557;-82
2021/01/17 13:45:12;;;;;;;30.80;11.93;;;0.00;99.90;;;;;;4950737;27;20098;-80
2021/01/17 13:47:41;;;;;;;33.60;10.88;;;-0.10;99.90;;;;;;4951910;27;20483;-81
2021/01/17 13:50:07;;;;;;;33.45;12.25;;;-0.10;99.90;;;;;;4950119;27;20186;-82
2021/01/17 13:52:30;;;;;;;33.83;11.48;;;-0.10;99.90;;;;;;4951617;27;20093;-81
2021/01/17 13:55:15;;;;;;;38.78;11.88;;;-0.10;99.90;;;;;;4950977;27;20099;-82
2021/01/17 13:57:54;;;;;;;35.42;13.05;;;-0.10;99.90;;;;;;4947743;27;20489;-82
2021/01/17 14:00:43;;;;;;;25.83;9.52;;;-0.20;99.90;;;;;;4948367;27;20090;-82
2021/01/17 14:03:08;;;;;;;31.92;10.48;;;-0.30;99.90;;;;;;4941537;27;20098;-82
2021/01/17 14:05:51;;;;;;;28.20;10.40;;;-0.40;99.90;;;;;;4936164;27;20085;-82